Time,TemperatureF,DewpointF,PressureIn,WindDirection,WindDirectionDegrees,WindSpeedMPH,WindSpeedGustMPH,Humidity,HourlyPrecipIn,Conditions,Clouds,dailyrainin,SoftwareType,DateUTC
2013-09-03 00:23:00,53.0,47.0,29.99,SSE,158,0.0,0.0,80,0.00,,,0.00,,2013-09-03 05:23:00,
2013-09-03 00:52:00,53.0,47.0,29.99,SSE,158,0.0,0.0,80,0.00,,,0.00,,2013-09-03 05:52:00,
2013-09-03 01:22:00,52.0,46.0,29.98,SSE,158,0.0,0.0,80,0.00,,,0.00,,2013-09-03 06:22:00,
2013-09-03 01:52:00,52.0,46.0,29.98,SSE,158,0.0,0.0,81,0.00,,,0.00,,2013-09-03 06:52:00,
2013-09-03 02:12:00,52.0,46.0,29.98,SSE,158,0.0,0.0,81,0.00,,,0.00,,2013-09-03 07:12:00,
2013-09-03 02:22:00,52.0,47.0,29.98,SSE,158,0.0,0.0,82,0.00,,,0.00,,2013-09-03 07:22:00,
2013-09-03 02:52:00,51.0,46.0,29.98,SSE,158,0.0,0.0,82,0.00,,,0.00,,2013-09-03 07:52:00,
2013-09-03 03:22:00,51.0,46.0,29.98,SSE,158,0.0,0.0,82,0.00,,,0.00,,2013-09-03 08:22:00,
2013-09-03 03:52:00,51.0,46.0,29.98,SSE,158,0.0,0.0,82,0.00,,,0.00,,2013-09-03 08:52:00,
2013-09-03 04:21:00,51.0,46.0,29.98,SSE,158,0.0,0.0,82,0.00,,,0.00,,2013-09-03 09:21:00,
2013-09-03 04:53:00,50.0,45.0,29.98,SSE,158,0.0,0.0,83,0.00,,,0.00,,2013-09-03 09:53:00,
2013-09-03 05:23:00,50.0,45.0,29.98,SE,135,0.0,0.0,83,0.00,,,0.00,,2013-09-03 10:23:00,
2013-09-03 05:53:00,50.0,45.0,29.99,SE,135,0.0,0.0,83,0.00,,,0.00,,2013-09-03 10:53:00,
2013-09-03 06:23:00,50.0,45.0,29.98,SE,135,0.0,0.0,83,0.00,,,0.00,,2013-09-03 11:23:00,
2013-09-03 06:52:00,50.0,45.0,29.98,SSE,158,0.0,0.0,84,0.00,,,0.00,,2013-09-03 11:52:00,
2013-09-03 07:21:00,49.0,44.0,29.99,SSE,158,0.0,0.0,83,0.00,,,0.00,,2013-09-03 12:21:00,
2013-09-03 07:52:00,50.0,45.0,29.99,SSE,158,0.0,0.0,84,0.00,,,0.00,,2013-09-03 12:52:00,
2013-09-03 08:21:00,51.0,47.0,30.00,SSE,158,0.0,0.0,85,0.00,,,0.00,,2013-09-03 13:21:00,
2013-09-03 08:52:00,52.0,48.0,30.00,SE,135,0.0,0.0,85,0.00,,,0.00,,2013-09-03 13:52:00,
2013-09-03 09:21:00,54.0,50.0,30.00,SW,214,0.0,2.0,85,0.00,,,0.00,,2013-09-03 14:21:00,
2013-09-03 09:52:00,54.0,50.0,30.00,SSW,203,0.0,1.0,86,0.00,,,0.00,,2013-09-03 14:52:00,
2013-09-03 10:22:00,57.0,53.0,29.99,SSW,211,0.0,2.0,85,0.00,,,0.00,,2013-09-03 15:22:00,
2013-09-03 10:54:00,59.0,54.0,29.99,SW,236,0.0,1.0,85,0.00,,,0.00,,2013-09-03 15:54:00,
2013-09-03 11:24:00,61.0,56.0,29.98,West,272,1.0,2.0,83,0.00,,,0.00,,2013-09-03 16:24:00,
2013-09-03 11:54:00,63.0,57.0,29.97,West,270,0.0,1.0,81,0.00,,,0.00,,2013-09-03 16:54:00,
2013-09-03 12:23:00,65.0,59.0,29.96,West,259,1.0,2.0,80,0.00,,,0.00,,2013-09-03 17:23:00,
2013-09-03 12:52:00,68.0,61.0,29.95,SW,236,1.0,2.0,77,0.00,,,0.00,,2013-09-03 17:52:00,
2013-09-03 13:22:00,70.0,61.0,29.94,South,172,1.0,2.0,74,0.00,,,0.00,,2013-09-03 18:22:00,
2013-09-03 13:52:00,72.0,62.0,29.95,SW,230,2.0,3.0,71,0.00,,,0.00,,2013-09-03 18:52:00,
2013-09-03 14:22:00,74.0,63.0,29.94,SW,229,1.0,2.0,69,0.00,,,0.00,,2013-09-03 19:22:00,
2013-09-03 14:52:00,75.0,63.0,29.93,West,270,0.0,3.0,67,0.00,,,0.00,,2013-09-03 19:52:00,
2013-09-03 15:53:00,76.0,64.0,29.92,SSW,197,1.0,3.0,66,0.00,,,0.00,,2013-09-03 20:53:00,
2013-09-03 16:01:00,76.0,64.0,29.92,SSW,197,1.0,3.0,66,0.00,,,0.00,,2013-09-03 21:01:00,
2013-09-03 16:12:00,76.0,64.0,29.92,SSW,197,1.0,3.0,66,0.00,,,0.00,,2013-09-03 21:12:00,
2013-09-03 16:54:00,76.0,63.0,29.91,West,261,2.0,3.0,64,0.00,,,0.00,,2013-09-03 21:54:00,
2013-09-03 17:23:00,77.0,64.0,29.90,NE,42,0.0,1.0,65,0.00,,,0.00,,2013-09-03 22:23:00,
2013-09-03 19:52:00,73.0,62.0,29.90,SW,225,0.0,0.0,69,0.00,,,0.00,,2013-09-04 00:52:00,
2013-09-03 20:22:00,72.0,62.0,29.90,SW,225,0.0,0.0,71,0.00,,,0.00,,2013-09-04 01:22:00,
2013-09-03 20:52:00,71.0,62.0,29.92,SW,225,0.0,0.0,73,0.00,,,0.00,,2013-09-04 01:52:00,
2013-09-03 21:11:00,70.0,61.0,29.91,SW,225,0.0,0.0,73,0.00,,,0.00,,2013-09-04 02:11:00,
2013-09-03 21:22:00,70.0,61.0,29.91,SW,225,0.0,0.0,73,0.00,,,0.00,,2013-09-04 02:22:00,
2013-09-03 21:52:00,69.0,60.0,29.92,SW,225,0.0,0.0,74,0.00,,,0.00,,2013-09-04 02:52:00,
2013-09-03 22:03:00,69.0,60.0,29.92,SW,225,0.0,0.0,74,0.00,,,0.00,,2013-09-04 03:03:00,
2013-09-03 22:22:00,67.0,60.0,29.93,WSW,241,1.0,2.0,77,0.00,,,0.00,,2013-09-04 03:22:00,
2013-09-03 22:54:00,67.0,60.0,29.93,SW,225,0.0,1.0,77,0.00,,,0.00,,2013-09-04 03:54:00,
2013-09-03 23:14:00,67.0,60.0,29.93,WSW,240,1.0,1.0,77,0.00,,,0.00,,2013-09-04 04:14:00,
2013-09-03 23:54:00,67.0,60.0,29.95,SSW,203,0.0,1.0,78,0.00,,,0.00,,2013-09-04 04:54:00,